EDDL/DUS METAR and TAF weather

Enter ICAO airport designator
Station Type Date Time Source
EDDL METAR 2020/12/05 05:50 UTC NOAA

EDDL 050550Z 16005KT CAVOK 03/02 Q0993 NOSIG


Station Type Date Time Source
EDDL Decoded METAR 2020/12/05 05:50 UTC NOAA

Duesseldorf, Germany (EDDL) 51-18N 006-46E 41M
Dec 05, 2020 - 12:50 AM EST / 2020.12.05 0550 UTC
Wind: from the SSE (160 degrees) at 6 MPH (5 KT):0
Visibility: greater than 7 mile(s):0
Temperature: 37 F (3 C)
Dew Point: 35 F (2 C)
Relative Humidity: 93%
Pressure (altimeter): 29.32 in. Hg (0993 hPa)
ob: EDDL 050550Z 16005KT CAVOK 03/02 Q0993 NOSIG
cycle: 6

Station Type Date Time Source
EDDL TAF 2020/12/05 06:28 UTC NOAA

TAF EDDL 050500Z 0506/0612 18004KT 9999 SCT030
BECMG 0507/0510 18009KT
BECMG 0516/0519 12004KT
BECMG 0602/0605 06005KT

Example: see airport list